Time;durP1;ratioP1;P1;durP2;ratioP2;P2;SDS_P1;SDS_P2;PMS_P1;PMS_P2;Temp;Humidity;BMP_temperature;BMP_pressure;BME280_temperature;BME280_humidity;BME280_pressure;Samples;Min_cycle;Max_cycle;Signal;HPM_P1;HPM_P2
2023/11/30 00:02:17;;;;;;;24.67;13.97;;;;;;;-1.52;100.00;100085.48;1462319;90;22516;-76
2023/11/30 00:04:43;;;;;;;28.70;14.57;;;;;;;-1.50;100.00;100084.93;1455770;90;21593;-76
2023/11/30 00:07:12;;;;;;;24.77;13.47;;;;;;;-1.49;100.00;100087.92;1456482;90;21571;-76
2023/11/30 00:09:38;;;;;;;31.80;17.87;;;;;;;-1.48;100.00;100081.80;1456962;90;21575;-76
2023/11/30 00:12:05;;;;;;;23.85;14.03;;;;;;;-1.47;100.00;100077.45;1450871;90;21651;-76
2023/11/30 00:14:31;;;;;;;25.00;14.13;;;;;;;-1.44;100.00;100085.94;1450882;90;21355;-76
2023/11/30 00:16:57;;;;;;;27.13;14.30;;;;;;;-1.41;100.00;100090.10;1437572;90;23159;-76
2023/11/30 00:19:24;;;;;;;28.60;15.27;;;;;;;-1.42;100.00;100084.54;1446345;90;21664;-76
2023/11/30 00:21:50;;;;;;;27.50;15.67;;;;;;;-1.43;100.00;100086.30;1448915;90;21870;-77
2023/11/30 00:24:16;;;;;;;23.90;14.17;;;;;;;-1.42;100.00;100085.38;1449534;90;22090;-77
2023/11/30 00:26:43;;;;;;;25.27;14.10;;;;;;;-1.41;100.00;100087.08;1459230;90;21428;-77
2023/11/30 00:29:10;;;;;;;32.00;16.47;;;;;;;-1.42;100.00;100089.73;1459973;90;21752;-76
2023/11/30 00:31:36;;;;;;;40.80;19.63;;;;;;;-1.41;100.00;100107.84;1448775;90;21582;-76
2023/11/30 00:34:02;;;;;;;29.17;15.90;;;;;;;-1.42;100.00;100102.72;1452444;90;21950;-76
2023/11/30 00:36:28;;;;;;;30.63;14.87;;;;;;;-1.41;100.00;100114.33;1446407;90;22990;-76
2023/11/30 00:38:54;;;;;;;27.10;17.23;;;;;;;-1.40;100.00;100118.59;1454832;90;21638;-75
2023/11/30 00:41:20;;;;;;;29.10;17.00;;;;;;;-1.39;100.00;100119.42;1453565;90;21779;-75
2023/11/30 00:43:46;;;;;;;30.40;15.93;;;;;;;-1.41;100.00;100114.33;1457119;90;21630;-76
2023/11/30 00:46:15;;;;;;;29.67;15.90;;;;;;;-1.38;100.00;100118.53;1457336;90;21786;-76
2023/11/30 00:48:41;;;;;;;28.43;15.77;;;;;;;-1.39;100.00;100117.66;1450604;90;21717;-75
2023/11/30 00:51:11;;;;;;;26.47;15.73;;;;;;;-1.39;100.00;100124.62;1451544;90;21774;-75
2023/11/30 00:53:39;;;;;;;26.17;14.87;;;;;;;-1.40;100.00;100123.78;1451826;90;21638;-76
2023/11/30 00:56:07;;;;;;;25.83;15.73;;;;;;;-1.42;100.00;100108.73;1451298;90;21622;-75
2023/11/30 00:58:33;;;;;;;26.07;15.07;;;;;;;-1.40;100.00;100112.11;1448759;90;21436;-75
2023/11/30 01:00:59;;;;;;;27.63;14.90;;;;;;;-1.41;100.00;100114.33;1453116;90;21717;-76
2023/11/30 01:03:25;;;;;;;30.53;17.17;;;;;;;-1.42;100.00;100117.83;1452064;90;21504;-76
2023/11/30 01:05:52;;;;;;;29.77;16.53;;;;;;;-1.44;100.00;100109.30;1452067;90;22429;-76
2023/11/30 01:08:18;;;;;;;27.57;17.13;;;;;;;-1.46;100.00;100115.02;1454267;90;21639;-76
2023/11/30 01:10:44;;;;;;;26.40;15.83;;;;;;;-1.47;100.00;100126.30;1430882;90;21817;-75
2023/11/30 01:13:10;;;;;;;30.77;16.30;;;;;;;-1.47;100.00;100126.30;1456128;90;21757;-76
2023/11/30 01:15:36;;;;;;;25.03;15.20;;;;;;;-1.50;100.00;100123.86;1441798;90;21601;-77
2023/11/30 01:18:03;;;;;;;27.43;17.37;;;;;;;-1.48;100.00;100123.80;1452051;90;21829;-76
2023/11/30 01:20:32;;;;;;;27.07;16.15;;;;;;;-1.47;100.00;100125.47;1452530;90;21567;-76
2023/11/30 01:23:00;;;;;;;28.02;17.30;;;;;;;-1.51;100.00;100123.49;1457720;90;21354;-75
2023/11/30 01:25:27;;;;;;;28.70;17.95;;;;;;;-1.52;100.00;100117.94;1456792;90;22359;-75
2023/11/30 01:27:53;;;;;;;27.27;16.57;;;;;;;-1.51;100.00;100119.59;1448746;90;21347;-76
2023/11/30 01:30:21;;;;;;;26.07;17.00;;;;;;;-1.51;100.00;100117.01;1451378;90;22394;-76
2023/11/30 01:32:47;;;;;;;29.40;16.97;;;;;;;-1.47;100.00;100118.52;1456439;90;21500;-76
2023/11/30 01:35:14;;;;;;;28.97;16.37;;;;;;;-1.47;100.00;100118.52;1452241;90;21797;-77
2023/11/30 01:37:40;;;;;;;30.97;17.30;;;;;;;-1.46;100.00;100120.21;1459214;90;21718;-76
2023/11/30 01:40:11;;;;;;;29.13;17.07;;;;;;;-1.46;100.00;100115.48;1463400;90;22530;-76
2023/11/30 01:42:37;;;;;;;31.40;18.12;;;;;;;-1.48;100.00;100116.84;1454056;90;21999;-77
2023/11/30 01:45:05;;;;;;;29.80;17.87;;;;;;;-1.52;100.00;100110.15;1458635;90;21377;-76
2023/11/30 01:47:32;;;;;;;28.63;17.80;;;;;;;-1.53;100.00;100108.45;1453515;90;21533;-77
2023/11/30 01:50:00;;;;;;;32.77;18.97;;;;;;;-1.53;100.00;100110.21;1456287;90;22844;-76
2023/11/30 01:52:31;;;;;;;30.33;17.83;;;;;;;-1.56;100.00;100112.50;1455485;90;21821;-77
2023/11/30 01:55:01;;;;;;;30.17;18.05;;;;;;;-1.58;100.00;100105.27;1455155;90;21525;-76
2023/11/30 01:57:29;;;;;;;30.63;17.53;;;;;;;-1.59;100.00;100108.77;1450440;90;22322;-76
2023/11/30 01:59:56;;;;;;;26.85;16.45;;;;;;;-1.62;100.00;100104.56;1453043;90;22038;-76
2023/11/30 02:02:24;;;;;;;28.93;17.07;;;;;;;-1.63;100.00;100104.20;1452587;90;21391;-76
2023/11/30 02:04:53;;;;;;;28.20;17.40;;;;;;;-1.65;100.00;100099.53;1450700;90;21797;-76
2023/11/30 02:07:20;;;;;;;31.40;18.70;;;;;;;-1.64;100.00;100097.77;1445031;90;21421;-76
2023/11/30 02:09:46;;;;;;;32.90;19.07;;;;;;;-1.66;100.00;100091.84;1454540;90;21346;-76
2023/11/30 02:12:12;;;;;;;29.77;17.07;;;;;;;-1.64;100.00;100097.77;1454585;90;21990;-76
2023/11/30 02:14:39;;;;;;;27.83;17.40;;;;;;;-1.62;100.00;100098.55;1452895;90;21518;-77
2023/11/30 02:17:05;;;;;;;29.20;18.55;;;;;;;-1.59;100.00;100100.98;1447226;89;21645;-76
2023/11/30 02:19:31;;;;;;;30.20;17.63;;;;;;;-1.57;100.00;100106.94;1432622;90;21437;-76
2023/11/30 02:21:57;;;;;;;32.27;17.73;;;;;;;-1.56;100.00;100111.20;1445931;90;22193;-77
2023/11/30 02:24:23;;;;;;;27.87;16.27;;;;;;;-1.55;100.00;100110.30;1457833;90;22367;-76
2023/11/30 02:26:49;;;;;;;33.10;18.53;;;;;;;-1.57;100.00;100110.84;1435010;90;21607;-76
2023/11/30 02:29:16;;;;;;;29.37;17.27;;;;;;;-1.57;100.00;100112.59;1452670;90;21539;-76
2023/11/30 02:31:43;;;;;;;31.87;16.70;;;;;;;-1.56;100.00;100114.27;1445827;90;22896;-77
2023/11/30 02:34:09;;;;;;;28.63;17.10;;;;;;;-1.57;100.00;100110.84;1458783;90;22436;-76
2023/11/30 02:36:35;;;;;;;28.90;17.47;;;;;;;-1.55;100.00;100111.61;1454968;90;21587;-76
2023/11/30 02:39:02;;;;;;;34.93;20.33;;;;;;;-1.54;100.00;100113.27;1438625;90;22317;-75
2023/11/30 02:41:28;;;;;;;33.43;19.07;;;;;;;-1.56;100.00;100120.29;1458460;90;21598;-74
2023/11/30 02:43:56;;;;;;;31.10;17.23;;;;;;;-1.54;100.00;100122.82;1459789;90;22467;-75
2023/11/30 02:46:23;;;;;;;30.53;18.20;;;;;;;-1.53;100.00;100121.42;1448131;90;21532;-75
2023/11/30 02:48:49;;;;;;;33.20;19.03;;;;;;;-1.51;100.00;100127.39;1453727;90;21774;-75
2023/11/30 02:51:15;;;;;;;31.53;19.30;;;;;;;-1.54;100.00;100124.95;1455752;90;22023;-75
2023/11/30 02:53:41;;;;;;;37.67;20.17;;;;;;;-1.57;100.00;100126.88;1428322;90;21636;-76
2023/11/30 02:56:08;;;;;;;30.10;18.53;;;;;;;-1.57;100.00;100123.81;1453391;90;21673;-75
2023/11/30 02:58:34;;;;;;;32.73;18.00;;;;;;;-1.57;100.00;100122.98;1449410;89;21512;-76
2023/11/30 03:01:03;;;;;;;34.23;19.83;;;;;;;-1.58;100.00;100123.44;1457684;89;21781;-75
2023/11/30 03:03:29;;;;;;;31.50;17.93;;;;;;;-1.60;100.00;100120.08;1452556;90;21913;-76
2023/11/30 03:05:55;;;;;;;37.88;22.17;;;;;;;-1.60;100.00;100120.08;1450934;90;22500;-77
2023/11/30 03:08:22;;;;;;;33.10;19.43;;;;;;;-1.62;100.00;100125.33;1455808;90;22319;-76
2023/11/30 03:10:49;;;;;;;35.48;19.92;;;;;;;-1.61;100.00;100128.79;1451867;90;22109;-76
2023/11/30 03:13:15;;;;;;;33.15;19.42;;;;;;;-1.61;100.00;100137.41;1453889;90;21376;-76
2023/11/30 03:15:46;;;;;;;39.77;21.73;;;;;;;-1.62;100.00;100133.11;1435632;90;22367;-76
2023/11/30 03:18:13;;;;;;;35.80;20.73;;;;;;;-1.62;100.00;100129.69;1459284;90;22324;-76
2023/11/30 03:20:39;;;;;;;36.70;20.23;;;;;;;-1.60;100.00;100125.27;1459521;90;21363;-75
2023/11/30 03:23:05;;;;;;;34.07;20.20;;;;;;;-1.63;100.00;100118.94;1451571;90;22652;-77
2023/11/30 03:25:32;;;;;;;36.10;21.60;;;;;;;-1.63;100.00;100120.23;1446225;90;21648;-76
2023/11/30 03:27:59;;;;;;;41.07;23.80;;;;;;;-1.65;100.00;100125.95;1444959;90;21873;-76
2023/11/30 03:30:26;;;;;;;41.63;21.57;;;;;;;-1.65;100.00;100132.44;1457813;90;21762;-77
2023/11/30 03:32:53;;;;;;;44.07;24.20;;;;;;;-1.66;100.00;100128.17;1458653;90;22022;-77
2023/11/30 03:35:19;;;;;;;41.03;22.50;;;;;;;-1.66;100.00;100119.09;1446303;90;22629;-77
2023/11/30 03:37:45;;;;;;;39.13;24.57;;;;;;;-1.66;100.00;100120.39;1450521;90;21594;-76
2023/11/30 03:40:12;;;;;;;36.35;21.15;;;;;;;-1.69;100.00;100112.30;1455300;90;22101;-76
2023/11/30 03:42:38;;;;;;;42.65;23.42;;;;;;;-1.71;100.00;100108.09;1459058;90;21532;-76
2023/11/30 03:45:05;;;;;;;41.73;23.27;;;;;;;-1.70;100.00;100101.52;1454670;90;21369;-76
2023/11/30 03:47:31;;;;;;;40.67;24.93;;;;;;;-1.70;100.00;100099.39;1461233;90;22764;-77
2023/11/30 03:49:58;;;;;;;41.80;22.20;;;;;;;-1.73;100.00;100099.08;1458685;90;22384;-77
2023/11/30 03:52:24;;;;;;;37.60;21.40;;;;;;;-1.74;100.00;100093.98;1451725;90;21883;-76
2023/11/30 03:54:50;;;;;;;38.30;23.00;;;;;;;-1.79;100.00;100094.67;1452494;90;21548;-77
2023/11/30 03:57:16;;;;;;;38.95;22.27;;;;;;;-1.81;100.00;100083.09;1446354;90;21384;-76
2023/11/30 03:59:42;;;;;;;45.73;24.55;;;;;;;-1.84;100.00;100081.48;1448263;90;22301;-76
2023/11/30 04:02:09;;;;;;;44.10;25.00;;;;;;;-1.86;100.00;100082.01;1448757;90;21391;-76
2023/11/30 04:04:38;;;;;;;43.98;24.35;;;;;;;-1.89;100.00;100080.03;1458750;90;21645;-75
2023/11/30 04:07:05;;;;;;;41.42;24.82;;;;;;;-1.91;100.00;100077.50;1434447;90;21886;-75
2023/11/30 04:09:31;;;;;;;45.43;27.07;;;;;;;-1.94;100.00;100079.42;1454672;90;21688;-77
2023/11/30 04:11:57;;;;;;;45.23;25.75;;;;;;;-1.98;100.00;100076.15;1449667;90;21854;-76
2023/11/30 04:14:23;;;;;;;44.48;24.18;;;;;;;-2.00;100.00;100080.56;1451625;90;21347;-76
2023/11/30 04:16:49;;;;;;;44.67;25.75;;;;;;;-2.03;100.00;100083.31;1455470;90;21347;-76
2023/11/30 04:19:16;;;;;;;48.13;26.05;;;;;;;-2.03;100.00;100088.96;1459349;90;21406;-76
2023/11/30 04:21:42;;;;;;;42.85;25.52;;;;;;;-2.05;100.00;100088.56;1448973;90;22278;-76
2023/11/30 04:24:08;;;;;;;47.38;26.93;;;;;;;-2.05;100.00;100087.73;1457582;90;21369;-77
2023/11/30 04:26:34;;;;;;;45.98;25.60;;;;;;;-2.06;100.00;100088.66;1457969;90;21339;-76
2023/11/30 04:29:00;;;;;;;45.97;25.83;;;;;;;-2.06;100.00;100080.87;1450116;90;21480;-76
2023/11/30 04:31:26;;;;;;;45.78;25.30;;;;;;;-2.06;100.00;100075.69;1450856;90;22536;-76
2023/11/30 04:33:53;;;;;;;47.90;25.27;;;;;;;-2.03;100.00;100073.41;1457574;90;21429;-76
2023/11/30 04:36:19;;;;;;;43.48;24.77;;;;;;;-2.02;100.00;100074.60;1450641;90;21558;-75
2023/11/30 04:38:45;;;;;;;49.20;25.05;;;;;;;-2.02;100.00;100074.60;1458888;90;21445;-76
2023/11/30 04:41:14;;;;;;;43.25;25.62;;;;;;;-1.99;100.00;100077.05;1449649;90;21368;-76
2023/11/30 04:43:40;;;;;;;47.33;27.82;;;;;;;-1.99;100.00;100073.16;1459998;90;22254;-76
2023/11/30 04:46:07;;;;;;;47.83;26.45;;;;;;;-2.01;100.00;100069.81;1458995;90;21349;-76
2023/11/30 04:48:33;;;;;;;41.48;24.67;;;;;;;-2.01;100.00;100065.92;1455000;90;21355;-76
2023/11/30 04:50:59;;;;;;;44.45;25.52;;;;;;;-2.01;100.00;100064.63;1464323;90;22350;-77
2023/11/30 04:53:25;;;;;;;49.80;27.15;;;;;;;-1.99;100.00;100054.16;1451986;90;21325;-76
2023/11/30 04:55:51;;;;;;;50.95;27.62;;;;;;;-2.00;100.00;100058.98;1454758;90;21429;-75
2023/11/30 04:58:17;;;;;;;45.17;26.45;;;;;;;-2.00;100.00;100064.17;1448761;90;21501;-75
2023/11/30 05:00:44;;;;;;;53.45;28.47;;;;;;;-1.99;100.00;100064.08;1447282;90;21436;-75
2023/11/30 05:03:10;;;;;;;48.17;28.30;;;;;;;-1.99;100.00;100055.00;1449288;90;22397;-75
2023/11/30 05:05:36;;;;;;;43.50;23.63;;;;;;;-2.02;100.00;100055.16;1457540;90;22374;-76
2023/11/30 05:08:03;;;;;;;46.70;26.35;;;;;;;-2.06;100.00;100045.86;1452020;90;22185;-75
2023/11/30 05:10:29;;;;;;;52.05;27.32;;;;;;;-2.05;100.00;100052.72;1458758;90;21523;-76
2023/11/30 05:12:55;;;;;;;43.68;24.15;;;;;;;-2.09;100.00;100044.72;1454624;90;21288;-76
2023/11/30 05:15:21;;;;;;;51.28;29.92;;;;;;;-2.09;100.00;100054.63;1457009;90;22233;-76
2023/11/30 05:17:48;;;;;;;46.63;25.57;;;;;;;-2.10;100.00;100048.20;1461855;90;22441;-75
2023/11/30 05:20:14;;;;;;;48.48;28.98;;;;;;;-2.09;100.00;100036.94;1447699;90;21377;-75
2023/11/30 05:22:40;;;;;;;47.17;27.00;;;;;;;-2.08;100.00;100042.03;1454823;90;22477;-76
2023/11/30 05:25:08;;;;;;;47.27;26.40;;;;;;;-2.04;100.00;100045.34;1450130;90;22367;-76
2023/11/30 05:27:34;;;;;;;46.77;25.12;;;;;;;-2.03;100.00;100044.41;1452790;90;22448;-76
2023/11/30 05:30:00;;;;;;;44.98;27.27;;;;;;;-2.01;100.00;100039.99;1452726;90;23011;-76
2023/11/30 05:32:26;;;;;;;49.95;27.65;;;;;;;-2.01;100.00;100041.72;1453663;90;21384;-76
2023/11/30 05:34:52;;;;;;;44.83;25.27;;;;;;;-2.03;100.00;100037.93;1447609;90;21900;-76
2023/11/30 05:37:18;;;;;;;50.85;28.32;;;;;;;-2.03;100.00;100035.33;1462032;90;21341;-76
2023/11/30 05:39:44;;;;;;;48.30;25.85;;;;;;;-2.08;100.00;100030.83;1453722;90;21427;-76
2023/11/30 05:42:11;;;;;;;47.45;26.62;;;;;;;-2.12;100.00;100024.97;1435066;90;21391;-75
2023/11/30 05:44:37;;;;;;;45.75;25.70;;;;;;;-2.15;100.00;100032.06;1452196;90;22271;-75
2023/11/30 05:47:04;;;;;;;39.10;22.98;;;;;;;-2.18;100.00;100031.76;1448871;90;22190;-76
2023/11/30 05:49:31;;;;;;;49.65;27.87;;;;;;;-2.18;100.00;100027.88;1452281;89;22433;-76
2023/11/30 05:51:57;;;;;;;46.28;24.40;;;;;;;-2.20;100.00;100021.91;1451340;90;21511;-75
2023/11/30 05:54:23;;;;;;;48.23;26.33;;;;;;;-2.23;100.00;100021.23;1442787;90;21421;-75
2023/11/30 05:56:49;;;;;;;49.45;26.52;;;;;;;-2.25;100.00;100022.59;1456204;90;21363;-75
2023/11/30 05:59:15;;;;;;;55.93;30.63;;;;;;;-2.25;100.00;100013.98;1435461;90;21495;-76
2023/11/30 06:01:41;;;;;;;63.28;31.70;;;;;;;-2.27;100.00;100016.20;1447571;90;22627;-75
2023/11/30 06:04:07;;;;;;;63.15;33.90;;;;;;;-2.28;100.00;100020.16;1455709;90;21332;-76
2023/11/30 06:06:34;;;;;;;66.40;32.10;;;;;;;-2.29;100.00;100018.02;1455905;90;21391;-77
2023/11/30 06:09:00;;;;;;;52.13;29.85;;;;;;;-2.31;100.00;100024.20;1440626;90;21546;-75
2023/11/30 06:11:26;;;;;;;50.63;28.40;;;;;;;-2.33;100.00;100025.58;1452378;90;21398;-75
2023/11/30 06:13:52;;;;;;;51.15;26.55;;;;;;;-2.31;100.00;100040.58;1452108;90;22362;-76
2023/11/30 06:16:18;;;;;;;49.77;27.25;;;;;;;-2.30;100.00;100029.78;1447189;90;21340;-75
2023/11/30 06:18:44;;;;;;;50.50;28.87;;;;;;;-2.27;100.00;100030.46;1439099;90;21495;-76
2023/11/30 06:21:10;;;;;;;51.37;26.55;;;;;;;-2.24;100.00;100017.81;1450242;90;21333;-75
2023/11/30 06:23:37;;;;;;;44.67;27.42;;;;;;;-2.20;100.00;100018.48;1463075;90;21487;-76
2023/11/30 06:26:05;;;;;;;49.18;27.30;;;;;;;-2.17;100.00;100022.22;1456570;90;23058;-75
2023/11/30 06:28:31;;;;;;;46.37;26.60;;;;;;;-2.12;100.00;100019.78;1437238;90;21953;-75
2023/11/30 06:30:57;;;;;;;65.40;32.13;;;;;;;-2.09;100.00;100008.42;1455792;90;21931;-75
2023/11/30 06:33:23;;;;;;;63.58;31.73;;;;;;;-2.06;100.00;99999.19;1452373;90;22343;-77
2023/11/30 06:35:49;;;;;;;77.92;39.18;;;;;;;-2.06;100.00;100000.02;1453696;90;22239;-76
2023/11/30 06:38:15;;;;;;;146.87;55.12;;;;;;;-2.01;100.00;99996.34;1454164;90;21384;-75
2023/11/30 06:40:42;;;;;;;139.68;53.83;;;;;;;-2.02;100.00;99992.91;1453209;89;21520;-76
2023/11/30 06:43:08;;;;;;;139.13;55.87;;;;;;;-2.00;100.00;99987.66;1458163;89;21583;-76
2023/11/30 06:45:34;;;;;;;131.67;55.30;;;;;;;-1.97;100.00;99986.20;1456138;90;22084;-76
2023/11/30 06:48:01;;;;;;;80.50;38.83;;;;;;;-1.93;100.00;99989.84;1452839;90;21354;-75
2023/11/30 06:50:27;;;;;;;52.20;27.67;;;;;;;-1.88;100.00;99986.56;1444901;89;22226;-76
2023/11/30 06:52:54;;;;;;;56.00;31.50;;;;;;;-1.78;100.00;99991.27;1456130;90;21870;-77
2023/11/30 06:55:20;;;;;;;50.33;28.20;;;;;;;-1.71;100.00;99986.15;1459705;90;21549;-76
2023/11/30 06:57:46;;;;;;;46.10;28.77;;;;;;;-1.67;100.00;99987.66;1436959;90;21931;-77
2023/11/30 07:00:15;;;;;;;46.83;27.67;;;;;;;-1.63;100.00;99987.88;1455116;89;21830;-77
2023/11/30 07:02:41;;;;;;;47.80;28.03;;;;;;;-1.58;100.00;99987.19;1458726;90;21532;-77
2023/11/30 07:05:08;;;;;;;51.47;27.63;;;;;;;-1.55;100.00;99994.81;1433367;90;21715;-76
2023/11/30 07:07:34;;;;;;;40.73;23.60;;;;;;;-1.50;100.00;99995.84;1457242;90;21621;-77
2023/11/30 07:10:01;;;;;;;43.20;25.33;;;;;;;-1.46;100.00;99986.99;1450558;90;22554;-76
2023/11/30 07:12:29;;;;;;;44.73;26.03;;;;;;;-1.39;100.00;99990.45;1450406;90;21742;-76
2023/11/30 07:14:55;;;;;;;42.47;24.20;;;;;;;-1.33;100.00;99998.84;1464006;90;22599;-76
2023/11/30 07:17:23;;;;;;;51.27;28.40;;;;;;;-1.29;100.00;99995.18;1455741;90;21672;-76
2023/11/30 07:19:51;;;;;;;51.10;27.30;;;;;;;-1.24;100.00;99990.55;1451083;90;21837;-76
2023/11/30 07:22:17;;;;;;;52.67;30.00;;;;;;;-1.21;100.00;99995.58;1453757;90;21734;-76
2023/11/30 07:24:49;;;;;;;48.97;27.83;;;;;;;-1.17;100.00;99993.20;1446463;90;21886;-76
2023/11/30 07:27:19;;;;;;;56.70;28.57;;;;;;;-1.16;100.00;99992.27;1458262;90;21821;-75
2023/11/30 07:29:46;;;;;;;67.90;35.53;;;;;;;-1.15;100.00;99993.97;1451641;90;21837;-75
2023/11/30 07:32:17;;;;;;;68.90;33.13;;;;;;;-1.13;100.00;99997.30;1456619;90;21526;-74
2023/11/30 07:34:44;;;;;;;;;;;;;;;-1.13;100.00;99993.41;1465795;90;21652;-75
2023/11/30 07:37:13;;;;;;;58.63;31.03;;;;;;;-1.12;100.00;100002.89;1450138;89;20962;-75
2023/11/30 07:39:39;;;;;;;45.73;27.27;;;;;;;-1.12;100.00;100014.58;1435542;92;21675;-75
2023/11/30 07:42:06;;;;;;;47.53;26.30;;;;;;;-1.10;100.00;100002.33;1459474;90;22081;-75
2023/11/30 07:44:35;;;;;;;50.10;25.80;;;;;;;-1.09;100.00;99992.33;1446899;90;22738;-75
2023/11/30 07:47:01;;;;;;;44.63;24.30;;;;;;;-1.08;100.00;99992.70;1444087;89;21399;-75
2023/11/30 07:49:28;;;;;;;41.57;23.07;;;;;;;-1.07;100.00;100006.52;1433282;90;21627;-74
2023/11/30 07:51:54;;;;;;;47.47;23.50;;;;;;;-1.06;100.00;100001.25;1450446;90;22558;-75
2023/11/30 07:54:20;;;;;;;56.20;26.23;;;;;;;-1.08;100.00;100005.69;1452113;90;21727;-76
2023/11/30 07:56:46;;;;;;;52.00;24.43;;;;;;;-1.08;100.00;100001.79;1461505;90;21606;-75
2023/11/30 07:59:13;;;;;;;46.73;24.07;;;;;;;-1.07;100.00;100006.52;1444303;90;21666;-76
2023/11/30 08:01:40;;;;;;;46.63;24.03;;;;;;;-1.07;100.00;100000.86;1449559;90;22487;-76
2023/11/30 08:04:06;;;;;;;44.23;25.57;;;;;;;-1.06;100.00;99986.97;1457967;90;21520;-75
2023/11/30 08:06:32;;;;;;;40.30;23.07;;;;;;;-1.03;100.00;99976.41;1462121;90;21642;-76
2023/11/30 08:08:59;;;;;;;39.10;20.80;;;;;;;-0.99;100.00;99972.70;1451597;89;21796;-76
2023/11/30 08:11:25;;;;;;;64.17;30.37;;;;;;;-0.95;100.00;99980.72;1453415;90;21614;-76
2023/11/30 08:13:51;;;;;;;145.07;56.53;;;;;;;-0.95;100.00;99995.01;1427912;90;21890;-76
2023/11/30 08:16:17;;;;;;;164.33;61.13;;;;;;;-0.89;100.00;99987.77;1454637;90;22546;-75
2023/11/30 08:18:44;;;;;;;87.23;38.77;;;;;;;-0.85;100.00;100000.98;1454583;90;21585;-76
2023/11/30 08:21:10;;;;;;;56.23;27.30;;;;;;;-0.82;100.00;100008.61;1456423;90;21786;-76
2023/11/30 08:23:37;;;;;;;53.47;23.17;;;;;;;-0.79;100.00;100004.07;1460190;90;22701;-76
2023/11/30 08:26:04;;;;;;;153.07;63.30;;;;;;;-0.73;100.00;100011.98;1459795;90;21595;-76
2023/11/30 08:28:30;;;;;;;72.50;34.07;;;;;;;-0.70;100.00;99998.81;1452147;90;21764;-76
2023/11/30 08:30:56;;;;;;;479.63;196.10;;;;;;;-0.66;100.00;99998.17;1454024;90;21782;-76
2023/11/30 08:33:22;;;;;;;121.70;53.80;;;;;;;-0.61;100.00;99994.39;1455169;90;21893;-76
2023/11/30 08:35:49;;;;;;;104.53;45.83;;;;;;;-0.54;100.00;99993.14;1455582;90;22583;-76
2023/11/30 08:38:16;;;;;;;136.13;57.50;;;;;;;-0.49;100.00;99984.62;1450195;90;21563;-76
2023/11/30 08:40:42;;;;;;;357.63;140.73;;;;;;;-0.49;100.00;99974.22;1452033;90;21564;-76
2023/11/30 08:43:09;;;;;;;70.10;33.33;;;;;;;-0.43;100.00;99983.86;1455642;90;21796;-76
2023/11/30 08:45:35;;;;;;;151.67;64.33;;;;;;;-0.40;100.00;99978.48;1459119;90;22544;-75
2023/11/30 08:48:01;;;;;;;122.53;55.17;;;;;;;-0.33;100.00;99985.02;1455882;90;21645;-76
2023/11/30 08:50:29;;;;;;;71.23;35.00;;;;;;;-0.29;100.00;99984.77;1450003;90;21763;-76
2023/11/30 08:52:55;;;;;;;273.73;114.33;;;;;;;-0.21;100.00;99984.30;1451865;90;21768;-76
2023/11/30 08:55:22;;;;;;;87.93;37.90;;;;;;;-0.17;100.00;99994.05;1456397;90;21674;-76
2023/11/30 08:57:48;;;;;;;36.00;21.17;;;;;;;-0.17;100.00;99977.14;1451834;90;22472;-75
2023/11/30 09:00:15;;;;;;;259.97;115.17;;;;;;;-0.16;100.00;99972.34;1443446;90;21570;-75
2023/11/30 09:02:41;;;;;;;114.97;53.37;;;;;;;-0.15;100.00;99963.59;1454161;90;21810;-75
2023/11/30 09:05:09;;;;;;;32.97;19.17;;;;;;;-0.16;100.00;99958.86;1454155;90;22567;-75
2023/11/30 09:07:36;;;;;;;44.10;24.67;;;;;;;-0.14;100.00;99967.89;1450767;90;22687;-75
2023/11/30 09:10:04;;;;;;;33.73;19.10;;;;;;;-0.12;100.00;99977.72;1450165;90;21793;-75
2023/11/30 09:12:31;;;;;;;29.20;17.60;;;;;;;-0.10;100.00;99964.17;1449925;90;22140;-74
2023/11/30 09:14:59;;;;;;;33.07;17.77;;;;;;;-0.09;100.00;99953.66;1455846;90;21793;-75
2023/11/30 09:17:25;;;;;;;34.93;20.77;;;;;;;-0.09;100.00;99948.92;1449988;90;21880;-75
2023/11/30 09:19:51;;;;;;;44.83;22.00;;;;;;;-0.09;100.00;99956.25;1455473;90;21763;-74
2023/11/30 09:22:18;;;;;;;35.10;19.83;;;;;;;-0.07;100.00;99954.41;1448432;90;22153;-75
2023/11/30 09:24:44;;;;;;;51.27;26.90;;;;;;;-0.09;100.00;99948.45;1454809;90;22983;-75
2023/11/30 09:27:10;;;;;;;32.70;20.23;;;;;;;-0.08;100.00;99936.30;1456129;90;21644;-75
2023/11/30 09:29:37;;;;;;;35.67;20.93;;;;;;;-0.09;100.00;99928.11;1447299;90;21838;-75
2023/11/30 09:32:04;;;;;;;33.97;19.73;;;;;;;-0.07;100.00;99910.19;1455705;90;21670;-75
2023/11/30 09:34:30;;;;;;;32.27;17.73;;;;;;;-0.06;100.00;99917.08;1453974;90;21734;-75
2023/11/30 09:36:56;;;;;;;32.43;17.03;;;;;;;-0.02;100.00;99927.66;1452194;90;21555;-75
2023/11/30 09:39:23;;;;;;;41.23;22.70;;;;;;;0.02;100.00;99915.77;1455043;90;21645;-74
2023/11/30 09:41:49;;;;;;;35.03;21.10;;;;;;;0.02;100.00;99911.39;1456857;90;21677;-74
2023/11/30 09:44:15;;;;;;;45.97;23.63;;;;;;;0.07;100.00;99895.52;1451105;90;21602;-75
2023/11/30 09:46:42;;;;;;;36.13;21.07;;;;;;;0.09;100.00;99894.96;1453465;90;22476;-74
2023/11/30 09:49:09;;;;;;;33.20;19.33;;;;;;;0.12;100.00;99888.27;1457823;90;21726;-75
2023/11/30 09:51:38;;;;;;;34.97;20.40;;;;;;;0.15;100.00;99885.00;1455333;90;21744;-74
2023/11/30 09:54:04;;;;;;;30.30;16.43;;;;;;;0.17;100.00;99882.29;1535190;90;21640;-75
2023/11/30 09:56:31;;;;;;;31.50;19.30;;;;;;;0.18;100.00;99876.17;1385910;90;22484;-75
2023/11/30 09:58:58;;;;;;;53.97;26.53;;;;;;;0.16;100.00;99876.72;1379832;90;21586;-75
2023/11/30 10:01:24;;;;;;;33.37;18.87;;;;;;;0.16;100.00;99867.61;1379080;90;21588;-74
2023/11/30 10:03:51;;;;;;;24.77;15.03;;;;;;;0.16;100.00;99866.31;1390469;90;21757;-74
2023/11/30 10:06:17;;;;;;;28.20;15.77;;;;;;;0.17;100.00;99865.38;1427811;90;21734;-74
2023/11/30 10:08:44;;;;;;;27.83;15.23;;;;;;;0.18;100.00;99859.26;1456127;90;21665;-75
2023/11/30 10:11:13;;;;;;;35.70;16.47;;;;;;;0.18;100.00;99859.26;1455127;90;21745;-75
2023/11/30 10:13:39;;;;;;;33.40;16.93;;;;;;;0.18;100.00;99835.36;1453823;90;22627;-75
2023/11/30 10:16:07;;;;;;;47.20;20.63;;;;;;;0.18;100.00;99822.83;1449604;90;21630;-75
2023/11/30 10:18:34;;;;;;;40.67;20.33;;;;;;;0.19;100.00;99847.91;1384521;90;22178;-74
2023/11/30 10:21:01;;;;;;;38.87;18.77;;;;;;;0.16;100.00;99835.09;1379665;90;21497;-75
2023/11/30 10:23:27;;;;;;;38.83;17.53;;;;;;;0.17;100.00;99828.94;1378936;90;22355;-75
2023/11/30 10:25:59;;;;;;;38.43;17.50;;;;;;;0.21;100.00;99839.55;1525334;90;21628;-74
2023/11/30 10:28:23;;;;;;;27.00;16.17;;;;;;;0.22;100.00;99837.30;1377047;90;22476;-74
2023/11/30 10:30:54;;;;;;;38.27;17.10;;;;;;;0.21;100.00;99840.84;1362796;91;21578;-74
2023/11/30 10:33:23;;;;;;;27.22;16.70;;;;;;;0.19;100.00;99862.22;1536686;90;21455;-76
2023/11/30 10:35:53;;;;;;;32.33;17.37;;;;;;;0.17;100.00;99866.67;1376328;90;22045;-74
2023/11/30 10:38:27;;;;;;;27.33;16.27;;;;;;;0.18;100.00;99863.99;1379246;90;21717;-75
2023/11/30 10:41:14;;;;;;;30.07;20.43;;;;;;;0.24;100.00;99869.28;1536448;90;21462;-76
2023/11/30 10:43:46;;;;;;;31.07;20.10;;;;;;;0.25;100.00;99857.92;1536455;90;21395;-75
2023/11/30 10:46:13;;;;;;;32.40;17.13;;;;;;;0.32;100.00;99837.11;1376789;91;21550;-74
2023/11/30 10:48:39;;;;;;;30.43;18.33;;;;;;;0.39;100.00;99836.24;1362386;91;21636;-74
2023/11/30 10:51:08;;;;;;;38.57;20.37;;;;;;;0.41;100.00;99845.62;1379705;90;21639;-75
2023/11/30 10:54:02;;;;;;;39.27;19.57;;;;;;;0.53;100.00;99842.71;1383920;90;21616;-75
2023/11/30 10:56:31;;;;;;;39.53;21.87;;;;;;;0.63;100.00;99828.63;1536447;90;21702;-75
2023/11/30 10:59:00;;;;;;;39.33;21.27;;;;;;;0.69;100.00;99830.83;1378137;90;22445;-76
2023/11/30 11:01:29;;;;;;;44.87;23.37;;;;;;;0.73;100.00;99831.02;1424743;90;21851;-75
2023/11/30 11:03:57;;;;;;;49.20;26.43;;;;;;;0.73;100.00;99821.90;1448696;89;21818;-75